Strona główna
METAR-TAF:

METAR-TAF

Lotnisko :

Lawrenceville-Vincennes International Airport

Lawrenceville, Illinois, Stany Zjednoczone

Szerokość geograficzna: 38-45-38N, Długość geograficzna: 087-35-56W, wysokość: 131 m

Aktualna obserwacja pogody

Raport powstał 33 minut temu, godzina 19:53 UTC
Wiatr 5 kt od wschodnio-południowy wschód
Temperatura 9°C
Wilgotność 40%
Ciśnienie 1027 hPa
Widzialność: 16.1 km
bezchmurnie

METAR: KLWV 071953Z AUTO 11005KT 10SM CLR 09/M04 A3033 RMK AO2 SLP273 T00891039

czas: 14:26 (20:26 UTC)


TAF: brakujący

Obserwacja i prognoza pogody dla ponad 4000 lotnisk (raport METAR i TAF).

Dostępne stacje oznaczono żółtymi i czerwonymi punktami na mapie.

Najedź kursorem aby zobaczyć nazwę stacji.

Kliknij aby zobaczyć obserwacje i prognozy pogody.

Aby zmienić mapę: kliknij na zielony przycisk z czarnym krzyżykiem, aby powiększyć; na zielony przycisk z myślnikiem, aby pomniejszyć; na zielone strzałki, aby przejść do map sąsiednich.


METAR-TAF: